| time (UTC) | temp F | wind direction | speed knots | gust knots | rain 1hr in | rain 24hr in | rain mn in | humidity % | barometer mb |
| 20260506001907 | 49 | 9 | 0.9 | 2.6 | 0.04 | 0.22 | 0.07 | 89 | 1006.5 |
| 20260506001406 | 49 | 40 | 0.0 | 0.0 | 0.03 | 0.21 | 0.06 | 89 | 1006.5 |
| 20260506000907 | 49 | 68 | 0.9 | 2.6 | 0.03 | 0.21 | 0.06 | 89 | 1006.6 |
| 20260506000408 | 49 | 61 | 0.0 | 1.7 | 0.04 | 0.21 | 0.06 | 89 | 1006.6 |
| 20260505235907 | 49 | 59 | 0.9 | 2.6 | 0.03 | 0.20 | 0.06 | 89 | 1006.7 |
| 20260505235407 | 49 | 44 | 0.9 | 2.6 | 0.04 | 0.20 | 0.06 | 89 | 1006.7 |
| 20260505234907 | 49 | 59 | 0.0 | 6.1 | 0.03 | 0.20 | 0.05 | 89 | 1006.7 |
| 20260505234408 | 49 | 30 | 0.9 | 2.6 | 0.03 | 0.20 | 0.05 | 89 | 1006.7 |
| 20260505233907 | 49 | 65 | 0.0 | 2.6 | 0.02 | 0.19 | 0.04 | 89 | 1006.7 |
| 20260505232907 | 49 | 46 | 0.9 | 2.6 | 0.03 | 0.19 | 0.04 | 89 | 1006.8 |
| 20260505232407 | 49 | 25 | 0.9 | 8.7 | 0.03 | 0.19 | 0.04 | 89 | 1006.8 |
| 20260505231907 | 49 | 62 | 0.0 | 2.6 | 0.02 | 0.18 | 0.03 | 89 | 1006.9 |
| 20260505231406 | 49 | 54 | 0.9 | 4.3 | 0.02 | 0.18 | 0.03 | 89 | 1006.8 |
| 20260505230907 | 49 | 39 | 0.9 | 5.2 | 0.03 | 0.18 | 0.03 | 89 | 1006.9 |
| 20260505230407 | 49 | 51 | 1.7 | 5.2 | 0.02 | 0.17 | 0.02 | 89 | 1006.9 |
| 20260505225907 | 50 | 63 | 1.7 | 7.0 | 0.02 | 0.17 | 0.02 | 89 | 1006.9 |
| 20260505225407 | 50 | 56 | 0.9 | 6.1 | 0.02 | 0.17 | 0.02 | 89 | 1006.9 |
| 20260505224907 | 50 | 26 | 1.7 | 7.0 | 0.02 | 0.17 | 0.02 | 89 | 1007.0 |
| 20260505224407 | 50 | 48 | 0.9 | 7.0 | 0.02 | 0.17 | 0.02 | 89 | 1007.0 |
| 20260505223906 | 50 | 37 | 1.7 | 4.3 | 0.03 | 0.17 | 0.02 | 89 | 1007.0 |
| 20260505223407 | 50 | 34 | 0.9 | 2.6 | 0.02 | 0.16 | 0.01 | 89 | 1007.0 |
| 20260505222908 | 50 | 79 | 0.9 | 4.3 | 0.02 | 0.16 | 0.01 | 89 | 1007.0 |
| 20260505222407 | 50 | 36 | 0.9 | 2.6 | 0.03 | 0.16 | 0.01 | 89 | 1007.0 |
| 20260505221907 | 50 | 42 | 2.6 | 7.0 | 0.03 | 0.16 | 0.01 | 89 | 1006.9 |
| 20260505221407 | 50 | 44 | 1.7 | 6.1 | 0.04 | 0.16 | 0.01 | 89 | 1007.0 |
| 20260505220407 | 50 | 38 | 1.7 | 7.0 | 0.04 | 0.15 | 0.00 | 89 | 1007.0 |
| 20260505215907 | 50 | 40 | 0.9 | 5.2 | 0.04 | 0.15 | 0.15 | 89 | 1007.0 |
| 20260505215407 | 50 | 61 | 0.9 | 6.1 | 0.04 | 0.15 | 0.15 | 89 | 1007.1 |
| 20260505214907 | 50 | 44 | 0.9 | 5.2 | 0.03 | 0.14 | 0.14 | 89 | 1007.0 |
| 20260505214407 | 50 | 54 | 0.9 | 2.6 | 0.04 | 0.14 | 0.14 | 89 | 1007.1 |
| 20260505212906 | 50 | 43 | 0.9 | 6.1 | 0.04 | 0.13 | 0.13 | 89 | 1007.1 |
| 20260505211907 | 50 | 0 | 0.9 | 7.0 | 0.04 | 0.13 | 0.13 | 89 | 1007.1 |
| 20260505211407 | 50 | 9 | 0.9 | 4.3 | 0.03 | 0.12 | 0.12 | 89 | 1007.2 |
| 20260505210907 | 51 | 48 | 1.7 | 8.7 | 0.03 | 0.12 | 0.12 | 89 | 1007.2 |
| 20260505210406 | 51 | 37 | 0.0 | 1.7 | 0.03 | 0.11 | 0.11 | 89 | 1007.2 |
| 20260505205907 | 51 | 48 | 0.0 | 7.0 | 0.03 | 0.11 | 0.11 | 89 | 1007.2 |
| 20260505205406 | 51 | 58 | 0.0 | 1.7 | 0.03 | 0.11 | 0.11 | 89 | 1007.2 |
| 20260505204906 | 51 | 54 | 1.7 | 5.2 | 0.03 | 0.11 | 0.11 | 89 | 1007.2 |
| 20260505204407 | 51 | 65 | 0.0 | 1.7 | 0.03 | 0.10 | 0.10 | 89 | 1007.2 |
| 20260505203907 | 51 | 56 | 0.0 | 1.7 | 0.03 | 0.10 | 0.10 | 89 | 1007.2 |
| 20260505203407 | 51 | 33 | 0.0 | 1.7 | 0.03 | 0.10 | 0.10 | 89 | 1007.2 |
| 20260505202907 | 51 | 42 | 0.9 | 4.3 | 0.03 | 0.09 | 0.09 | 89 | 1007.2 |
| 20260505202407 | 51 | 45 | 0.0 | 5.2 | 0.03 | 0.09 | 0.09 | 89 | 1007.2 |
| 20260505201907 | 51 | 55 | 0.9 | 4.3 | 0.02 | 0.09 | 0.09 | 89 | 1007.2 |
| 20260505201407 | 51 | 57 | 0.0 | 0.0 | 0.02 | 0.09 | 0.09 | 89 | 1007.1 |
| 20260505200407 | 51 | 38 | 1.7 | 4.3 | 0.02 | 0.08 | 0.08 | 89 | 1007.1 |
| 20260505195907 | 51 | 75 | 0.9 | 2.6 | 0.02 | 0.08 | 0.08 | 89 | 1007.1 |
| 20260505195407 | 51 | 63 | 1.7 | 7.0 | 0.02 | 0.08 | 0.08 | 89 | 1007.0 |
| 20260505194907 | 51 | 72 | 0.9 | 6.1 | 0.03 | 0.08 | 0.08 | 89 | 1007.0 |
| 20260505194407 | 51 | 48 | 0.0 | 5.2 | 0.02 | 0.07 | 0.07 | 89 | 1007.0 |
| 20260505193907 | 51 | 55 | 0.0 | 7.0 | 0.02 | 0.07 | 0.07 | 89 | 1007.0 |
| 20260505193406 | 51 | 26 | 1.7 | 5.2 | 0.02 | 0.07 | 0.07 | 89 | 1007.0 |
| 20260505192907 | 51 | 60 | 0.9 | 2.6 | 0.02 | 0.06 | 0.06 | 89 | 1006.9 |
| 20260505192407 | 51 | 68 | 0.9 | 5.2 | 0.02 | 0.06 | 0.06 | 89 | 1006.9 |
| 20260505191907 | 51 | 56 | 0.9 | 4.3 | 0.02 | 0.06 | 0.06 | 89 | 1006.9 |
| 20260505191407 | 51 | 41 | 0.0 | 6.1 | 0.02 | 0.06 | 0.06 | 89 | 1006.9 |
| 20260505190907 | 51 | 63 | 0.9 | 6.1 | 0.02 | 0.06 | 0.06 | 89 | 1006.9 |
| 20260505190407 | 51 | 68 | 0.9 | 2.6 | 0.02 | 0.06 | 0.06 | 89 | 1006.8 |
| 20260505185906 | 51 | 65 | 0.0 | 2.6 | 0.02 | 0.06 | 0.06 | 89 | 1006.8 |
| 20260505184407 | 51 | 55 | 1.7 | 4.3 | 0.02 | 0.05 | 0.05 | 89 | 1006.8 |
| 20260505183907 | 51 | 53 | 1.7 | 8.7 | 0.02 | 0.05 | 0.05 | 89 | 1006.8 |
| 20260505183407 | 51 | 50 | 0.9 | 6.1 | 0.02 | 0.05 | 0.05 | 89 | 1006.8 |
| 20260505182907 | 52 | 56 | 0.9 | 2.6 | 0.02 | 0.04 | 0.04 | 89 | 1006.8 |
| 20260505182406 | 52 | 67 | 0.0 | 1.7 | 0.02 | 0.04 | 0.04 | 89 | 1006.8 |
| 20260505181407 | 52 | 70 | 0.9 | 4.3 | 0.02 | 0.04 | 0.04 | 89 | 1006.8 |
| 20260505180907 | 52 | 40 | 0.0 | 4.3 | 0.01 | 0.03 | 0.03 | 89 | 1006.8 |
| 20260505180406 | 52 | 56 | 0.9 | 4.3 | 0.01 | 0.03 | 0.03 | 89 | 1006.8 |
| 20260505175906 | 52 | 59 | 0.9 | 2.6 | 0.01 | 0.03 | 0.03 | 89 | 1006.8 |
| 20260505175407 | 52 | 64 | 0.9 | 1.7 | 0.00 | 0.02 | 0.02 | 89 | 1006.8 |
| 20260505174907 | 52 | 58 | 1.7 | 4.3 | 0.00 | 0.02 | 0.02 | 89 | 1006.8 |
| 20260505174407 | 52 | 30 | 0.0 | 1.7 | 0.00 | 0.02 | 0.02 | 89 | 1006.8 |
| 20260505173406 | 52 | 51 | 0.9 | 6.1 | 0.00 | 0.02 | 0.02 | 89 | 1006.8 |
| 20260505172906 | 52 | 36 | 0.9 | 4.3 | 0.00 | 0.02 | 0.02 | 89 | 1006.8 |
| 20260505172407 | 52 | 51 | 1.7 | 4.3 | 0.00 | 0.02 | 0.02 | 89 | 1006.7 |
| 20260505171406 | 52 | 92 | 1.7 | 4.3 | 0.00 | 0.02 | 0.02 | 89 | 1006.7 |
| 20260505170906 | 52 | 49 | 1.7 | 6.1 | 0.00 | 0.02 | 0.02 | 89 | 1006.8 |
| 20260505165406 | 52 | 32 | 0.9 | 2.6 | 0.00 | 0.02 | 0.02 | 89 | 1006.8 |
| 20260505164906 | 52 | 35 | 0.9 | 5.2 | 0.00 | 0.02 | 0.02 | 89 | 1006.9 |
| 20260505164407 | 52 | 38 | 1.7 | 6.1 | 0.00 | 0.02 | 0.02 | 89 | 1006.9 |
| 20260505163907 | 52 | 49 | 0.9 | 2.6 | 0.00 | 0.02 | 0.02 | 89 | 1006.9 |
| 20260505163407 | 52 | 48 | 0.9 | 2.6 | 0.00 | 0.02 | 0.02 | 89 | 1006.9 |
| 20260505162906 | 52 | 59 | 0.0 | 1.7 | 0.00 | 0.02 | 0.02 | 89 | 1006.9 |
| 20260505162407 | 52 | 67 | 1.7 | 7.0 | 0.00 | 0.02 | 0.02 | 89 | 1006.9 |
| 20260505161906 | 52 | 55 | 0.0 | 4.3 | 0.00 | 0.02 | 0.02 | 89 | 1006.9 |
| 20260505161406 | 52 | 49 | 0.9 | 2.6 | 0.00 | 0.02 | 0.02 | 89 | 1006.9 |
| 20260505160406 | 52 | 46 | 2.6 | 6.1 | 0.00 | 0.02 | 0.02 | 89 | 1006.9 |
| 20260505152906 | 52 | 52 | 1.7 | 7.0 | 0.00 | 0.02 | 0.02 | 90 | 1007.0 |
| 20260505152407 | 52 | 45 | 1.7 | 4.3 | 0.00 | 0.03 | 0.02 | 90 | 1007.0 |
| 20260505151907 | 52 | 63 | 1.7 | 5.2 | 0.00 | 0.03 | 0.02 | 90 | 1007.0 |
| 20260505151407 | 52 | 67 | 0.9 | 2.6 | 0.00 | 0.03 | 0.02 | 89 | 1007.0 |
| 20260505150406 | 52 | 73 | 1.7 | 5.2 | 0.00 | 0.03 | 0.02 | 89 | 1007.1 |
| 20260505140406 | 53 | 58 | 0.9 | 2.6 | 0.00 | 0.08 | 0.02 | 89 | 1007.1 |
| 20260505124907 | 54 | 36 | 2.6 | 7.8 | 0.00 | 0.08 | 0.02 | 90 | 1007.6 |
| 20260505124406 | 54 | 54 | 0.9 | 2.6 | 0.00 | 0.08 | 0.02 | 90 | 1007.7 |
| 20260505123906 | 54 | 39 | 1.7 | 5.2 | 0.00 | 0.08 | 0.02 | 90 | 1007.7 |
| 20260505122906 | 54 | 12 | 0.9 | 7.0 | 0.00 | 0.08 | 0.02 | 89 | 1007.6 |
| 20260505121906 | 54 | 39 | 0.0 | 1.7 | 0.00 | 0.08 | 0.02 | 90 | 1007.7 |
| 20260505121406 | 54 | 68 | 0.9 | 7.0 | 0.00 | 0.08 | 0.02 | 90 | 1007.7 |
| 20260505120907 | 54 | 43 | 1.7 | 6.1 | 0.00 | 0.08 | 0.02 | 90 | 1007.7 |
| 20260505120406 | 54 | 54 | 0.9 | 5.2 | 0.00 | 0.08 | 0.02 | 90 | 1007.7 |
| 20260505115906 | 54 | 60 | 1.7 | 4.3 | 0.00 | 0.08 | 0.02 | 90 | 1007.7 |
| 20260505114906 | 54 | 36 | 0.9 | 4.3 | 0.00 | 0.08 | 0.02 | 90 | 1007.7 |
| 20260505114406 | 54 | 14 | 0.9 | 4.3 | 0.00 | 0.08 | 0.02 | 90 | 1007.8 |
| 20260505113906 | 54 | 58 | 0.9 | 2.6 | 0.00 | 0.08 | 0.02 | 90 | 1007.8 |
| 20260505112906 | 54 | 50 | 0.9 | 4.3 | 0.00 | 0.08 | 0.02 | 90 | 1007.9 |
| 20260505112407 | 54 | 31 | 1.7 | 6.1 | 0.00 | 0.08 | 0.02 | 90 | 1007.9 |
| 20260505111907 | 54 | 48 | 0.9 | 1.7 | 0.00 | 0.08 | 0.02 | 90 | 1008.0 |
| 20260505111406 | 54 | 19 | 0.9 | 2.6 | 0.00 | 0.08 | 0.02 | 90 | 1008.0 |
| 20260505110907 | 54 | 50 | 0.0 | 1.7 | 0.00 | 0.08 | 0.02 | 90 | 1008.0 |
| 20260505110407 | 53 | 59 | 0.9 | 4.3 | 0.00 | 0.08 | 0.02 | 90 | 1008.1 |
| 20260505101906 | 53 | 58 | 0.9 | 4.3 | 0.00 | 0.08 | 0.02 | 90 | 1008.3 |
| 20260505101407 | 53 | 53 | 0.0 | 6.1 | 0.00 | 0.08 | 0.02 | 90 | 1008.3 |
| 20260505100406 | 53 | 55 | 0.9 | 2.6 | 0.01 | 0.08 | 0.02 | 90 | 1008.2 |
| 20260505095906 | 53 | 53 | 0.9 | 5.2 | 0.01 | 0.08 | 0.02 | 90 | 1008.2 |
| 20260505095406 | 54 | 50 | 3.5 | 7.0 | 0.01 | 0.08 | 0.02 | 90 | 1008.1 |
| 20260505094906 | 54 | 44 | 0.9 | 2.6 | 0.01 | 0.08 | 0.02 | 90 | 1008.1 |
| 20260505093907 | 54 | 46 | 0.9 | 5.2 | 0.01 | 0.08 | 0.02 | 90 | 1008.2 |
| 20260505093407 | 54 | 26 | 0.0 | 1.7 | 0.01 | 0.08 | 0.02 | 90 | 1008.2 |
| 20260505092907 | 54 | 75 | 1.7 | 5.2 | 0.01 | 0.08 | 0.02 | 90 | 1008.2 |
| 20260505092406 | 53 | 30 | 0.9 | 4.3 | 0.01 | 0.08 | 0.02 | 90 | 1008.3 |
| 20260505091906 | 53 | 35 | 0.0 | 2.6 | 0.01 | 0.08 | 0.02 | 90 | 1008.3 |
| 20260505090907 | 53 | 78 | 1.7 | 7.8 | 0.00 | 0.07 | 0.02 | 91 | 1008.3 |
| 20260505090406 | 53 | 39 | 0.9 | 5.2 | 0.00 | 0.07 | 0.02 | 91 | 1008.3 |
| 20260505085406 | 53 | 49 | 0.0 | 1.7 | 0.01 | 0.07 | 0.02 | 91 | 1008.3 |
| 20260505084906 | 53 | 45 | 0.0 | 0.9 | 0.01 | 0.07 | 0.02 | 91 | 1008.3 |
| 20260505084407 | 53 | 38 | 0.0 | 0.9 | 0.01 | 0.07 | 0.02 | 91 | 1008.3 |
| 20260505083406 | 53 | 40 | 0.9 | 2.6 | 0.01 | 0.07 | 0.02 | 91 | 1008.2 |
| 20260505082407 | 53 | 43 | 0.9 | 1.7 | 0.02 | 0.07 | 0.02 | 91 | 1008.2 |
| 20260505081906 | 53 | 54 | 0.9 | 2.6 | 0.02 | 0.07 | 0.02 | 91 | 1008.3 |
| 20260505081406 | 53 | 43 | 0.0 | 0.9 | 0.02 | 0.07 | 0.02 | 91 | 1008.3 |
| 20260505080907 | 53 | 44 | 0.9 | 2.6 | 0.02 | 0.07 | 0.02 | 91 | 1008.3 |
| 20260505080406 | 53 | 37 | 0.0 | 4.3 | 0.02 | 0.07 | 0.02 | 91 | 1008.4 |
| 20260505075906 | 53 | 55 | 0.0 | 4.3 | 0.02 | 0.07 | 0.02 | 91 | 1008.4 |
| 20260505075406 | 53 | 52 | 0.0 | 0.9 | 0.01 | 0.06 | 0.01 | 91 | 1008.5 |
| 20260505074407 | 53 | 66 | 0.0 | 1.7 | 0.01 | 0.06 | 0.01 | 91 | 1008.5 |
| 20260505073906 | 53 | 68 | 0.9 | 1.7 | 0.01 | 0.06 | 0.01 | 91 | 1008.4 |
| 20260505072907 | 53 | 63 | 0.0 | 0.0 | 0.00 | 0.06 | 0.00 | 91 | 1008.4 |
| 20260505072407 | 53 | 63 | 0.0 | 0.9 | 0.00 | 0.06 | 0.00 | 91 | 1008.5 |
| 20260505071406 | 53 | 52 | 0.0 | 0.9 | 0.00 | 0.06 | 0.00 | 91 | 1008.5 |
| 20260505070906 | 53 | 52 | 0.0 | 0.9 | 0.00 | 0.06 | 0.00 | 91 | 1008.6 |
| 20260505070406 | 53 | 52 | 0.0 | 1.7 | 0.00 | 0.06 | 0.00 | 91 | 1008.6 |
| 20260505065906 | 53 | 50 | 0.9 | 2.6 | 0.00 | 0.06 | 0.00 | 91 | 1008.5 |
| 20260505065406 | 53 | 43 | 0.0 | 1.7 | 0.00 | 0.06 | 0.00 | 91 | 1008.6 |
| 20260505064906 | 53 | 16 | 0.0 | 0.9 | 0.00 | 0.06 | 0.00 | 91 | 1008.6 |
| 20260505064406 | 53 | 341 | 0.9 | 1.7 | 0.00 | 0.06 | 0.00 | 91 | 1008.5 |
| 20260505063906 | 53 | 4 | 0.9 | 1.7 | 0.00 | 0.06 | 0.00 | 91 | 1008.6 |
| 20260505062907 | 54 | 6 | 0.0 | 0.0 | 0.00 | 0.06 | 0.00 | 91 | 1008.6 |
| 20260505062406 | 54 | 67 | 0.0 | 0.0 | 0.00 | 0.06 | 0.00 | 91 | 1008.6 |
| 20260505061906 | 54 | 60 | 0.0 | 0.0 | 0.00 | 0.06 | 0.00 | 91 | 1008.6 |
| 20260505061406 | 54 | 62 | 0.0 | 2.6 | 0.00 | 0.06 | 0.00 | 91 | 1008.6 |
| 20260505060906 | 54 | 44 | 0.9 | 2.6 | 0.00 | 0.06 | 0.00 | 91 | 1008.6 |
| 20260505060406 | 54 | 0 | 0.0 | 0.0 | 0.00 | 0.06 | 0.00 | 91 | 1008.6 |
| 20260505055906 | 54 | 49 | 1.7 | 4.3 | 0.00 | 0.06 | 0.00 | 91 | 1008.6 |
| 20260505054906 | 54 | 58 | 0.9 | 2.6 | 0.00 | 0.06 | 0.00 | 91 | 1008.6 |
| 20260505054406 | 54 | 41 | 0.9 | 2.6 | 0.00 | 0.06 | 0.00 | 91 | 1008.6 |
| 20260505053906 | 54 | 23 | 0.9 | 1.7 | 0.00 | 0.06 | 0.00 | 91 | 1008.6 |
| 20260505052906 | 54 | 24 | 0.0 | 0.9 | 0.00 | 0.06 | 0.00 | 91 | 1008.6 |
| 20260505052407 | 54 | 1 | 0.0 | 1.7 | 0.00 | 0.06 | 0.00 | 91 | 1008.6 |
| 20260505051906 | 54 | 10 | 0.0 | 0.9 | 0.00 | 0.06 | 0.00 | 91 | 1008.6 |
| 20260505050906 | 54 | 78 | 0.0 | 0.0 | 0.00 | 0.06 | 0.00 | 91 | 1008.5 |
| 20260505050406 | 54 | 88 | 0.0 | 0.9 | 0.00 | 0.06 | 0.00 | 91 | 1008.4 |
| 20260505041406 | 55 | 312 | 0.0 | 2.6 | 0.00 | 0.06 | 0.00 | 91 | 1008.6 |
| 20260505040906 | 55 | 289 | 0.0 | 2.6 | 0.00 | 0.06 | 0.00 | 91 | 1008.6 |
| 20260505040406 | 55 | 298 | 0.0 | 0.0 | 0.00 | 0.06 | 0.00 | 91 | 1008.7 |
| 20260505035906 | 55 | 284 | 0.0 | 0.0 | 0.00 | 0.06 | 0.00 | 91 | 1008.7 |
| 20260505035407 | 55 | 284 | 0.0 | 0.0 | 0.00 | 0.06 | 0.00 | 91 | 1008.7 |
| 20260505034906 | 55 | 284 | 0.0 | 0.0 | 0.00 | 0.06 | 0.00 | 91 | 1008.8 |
| 20260505034406 | 55 | 284 | 0.0 | 0.0 | 0.00 | 0.06 | 0.00 | 91 | 1008.8 |
| 20260505033906 | 55 | 284 | 0.0 | 0.0 | 0.00 | 0.06 | 0.00 | 91 | 1008.9 |
| 20260505033406 | 55 | 284 | 0.0 | 0.0 | 0.00 | 0.06 | 0.00 | 91 | 1008.9 |
| 20260505031906 | 55 | 10 | 0.0 | 0.9 | 0.00 | 0.06 | 0.00 | 91 | 1008.9 |
| 20260505031406 | 55 | 5 | 0.0 | 0.9 | 0.00 | 0.06 | 0.00 | 91 | 1008.9 |
| 20260505030906 | 55 | 5 | 0.0 | 0.0 | 0.00 | 0.06 | 0.00 | 91 | 1009.0 |
| 20260505025906 | 55 | 5 | 0.0 | 0.0 | 0.00 | 0.06 | 0.00 | 91 | 1009.1 |
| 20260505024906 | 55 | 5 | 0.0 | 0.9 | 0.00 | 0.06 | 0.00 | 91 | 1009.2 |
| 20260505023906 | 55 | 2 | 0.0 | 0.9 | 0.00 | 0.06 | 0.00 | 91 | 1009.2 |
| 20260505023405 | 55 | 24 | 0.9 | 1.7 | 0.00 | 0.06 | 0.00 | 91 | 1009.2 |
| 20260505022906 | 55 | 38 | 0.0 | 0.9 | 0.00 | 0.06 | 0.00 | 91 | 1009.2 |
| 20260505022406 | 55 | 38 | 0.0 | 0.0 | 0.00 | 0.06 | 0.00 | 91 | 1009.2 |
| 20260505021406 | 55 | 38 | 0.0 | 0.9 | 0.00 | 0.06 | 0.00 | 91 | 1009.1 |
| 20260505020907 | 55 | 43 | 0.0 | 0.9 | 0.00 | 0.06 | 0.00 | 91 | 1009.0 |
| 20260505020406 | 55 | 59 | 0.9 | 1.7 | 0.00 | 0.06 | 0.00 | 91 | 1009.1 |
| 20260505015906 | 55 | 45 | 0.0 | 0.0 | 0.00 | 0.06 | 0.00 | 91 | 1009.1 |
| 20260505015407 | 55 | 45 | 0.0 | 2.6 | 0.00 | 0.06 | 0.00 | 91 | 1009.1 |
| 20260505014907 | 55 | 70 | 0.9 | 1.7 | 0.00 | 0.06 | 0.00 | 91 | 1009.1 |
| 20260505014406 | 55 | 55 | 0.0 | 1.7 | 0.00 | 0.06 | 0.00 | 91 | 1009.1 |
| 20260505013406 | 55 | 26 | 0.0 | 0.9 | 0.00 | 0.06 | 0.00 | 91 | 1009.1 |
| 20260505012906 | 55 | 21 | 0.0 | 1.7 | 0.00 | 0.06 | 0.00 | 91 | 1009.2 |
| 20260505012406 | 55 | 46 | 0.0 | 0.0 | 0.00 | 0.06 | 0.00 | 92 | 1009.2 |
| 20260505011406 | 56 | 5 | 0.0 | 0.0 | 0.00 | 0.06 | 0.00 | 92 | 1009.2 |
| 20260505010906 | 56 | 0 | 0.0 | 0.0 | 0.00 | 0.06 | 0.00 | 92 | 1009.2 |
| 20260505010406 | 56 | 355 | 0.0 | 0.0 | 0.00 | 0.06 | 0.00 | 92 | 1009.3 |
| 20260505005906 | 55 | 50 | 0.0 | 0.0 | 0.00 | 0.06 | 0.00 | 92 | 1009.3 |
| 20260505005406 | 55 | 53 | 0.0 | 0.0 | 0.00 | 0.06 | 0.00 | 92 | 1009.3 |
| 20260505004906 | 55 | 62 | 0.0 | 0.0 | 0.00 | 0.06 | 0.00 | 92 | 1009.3 |
| 20260505004406 | 55 | 58 | 0.0 | 0.0 | 0.00 | 0.06 | 0.00 | 92 | 1009.3 |
| 20260505003906 | 55 | 58 | 0.0 | 0.0 | 0.00 | 0.06 | 0.00 | 92 | 1009.3 |
| 20260505003407 | 55 | 58 | 0.0 | 0.0 | 0.00 | 0.06 | 0.00 | 92 | 1009.4 |
| 20260505002906 | 55 | 58 | 0.0 | 0.0 | 0.00 | 0.06 | 0.00 | 92 | 1009.4 |
| 20260505002406 | 55 | 58 | 0.0 | 0.0 | 0.00 | 0.06 | 0.00 | 92 | 1009.4 |